Fisk, MO (63940)

6:35 AM CDT on March 23, 2017 (GMT -0500)
MUP918 | | Change Station

Elev 328 ft 36.77 °N, 90.26 °W | Updated 22 minutes ago

Overcast
Overcast
43.0 °F
Feels Like 43.0 °F
N
-
Wind Variable Wind from North

Today
High -- | Low -- °F
--% Chance of Precip.
Yesterday
High -- | Low -- °F
Precip. -- in
Pressure 30.28 in
Visibility 10.0 miles
Clouds Overcast 9000 ft
Dew Point Not available.
Humidity Not available.
Rainfall in
Snow Depth Not available.
6:59 AM 7:15 PM
Waning Crescent, 24% visible
METAR KPOF 231053Z AUTO 08006KT 10SM OVC090 08/M01 A3027 RMK AO2 SLP252 T00781006 TSNO
Pressure 30.28 in
Visibility 10.0 miles
Clouds Overcast 9000 ft
Dew Point Not available.
Humidity Not available.
Rainfall in
Snow Depth Not available.
6:59 AM 7:15 PM
Waning Crescent, 24% visible
METAR KPOF 231053Z AUTO 08006KT 10SM OVC090 08/M01 A3027 RMK AO2 SLP252 T00781006 TSNO

Get Severe Weather Alerts

Thanks for signing up!

Be on the lookout for a verification email in your inbox.

You'll start receiving the daily forecast at 8 AM.

×

10-Day Weather Forecast

Almanac

Astronomy

Mar. 23, 2017 Rise Set
Actual Time
Civil Twilight
Nautical Twilight
Astronomical Twilight
Moon
Length of Visible Light
Length of Day
Tomorrow will be .
, % of the Moon is Illuminated

Today's Extremes

State Highs State Lows

Community

WunderPhotos

Upload Photos

1,962,540 photos uploaded!

WunderBlog® & News

Nearby

Air Quality

  Air Quality AQ Index Pollutant
Not available.

Snow Depth

Station Depth Elevation

Earthquake Activity

City Distance Mag. Time & Date
Minimum magnitude displayed is 2.5.

Earthquake Activity

City Distance Mag. Time & Date
Minimum magnitude displayed is 2.5.

Coastal Water Temperatures

Place Temperature

Stations

Nearby Weather Stations

Station Location Temp. Windchill Dew Point Humidity Wind Precip. Elev Updated Type
                   

Watches & Warnings

There are currently no watches in effect.